Metar z pełnej godziny Komunikat METAR ze strony awiacja.imgw.pl Metar G00 EPWA METAR EPWA 211600Z 13007KT CAVOK 27/13 Q1015 NOSIG=